createdAt,value
2023-02-22T00:01:08.500Z,100.00
2023-02-22T00:03:36.132Z,100.00
2023-02-22T00:06:05.962Z,100.00
2023-02-22T00:08:36.435Z,100.00
2023-02-22T00:11:10.749Z,100.00
2023-02-22T00:13:39.503Z,100.00
2023-02-22T00:16:07.707Z,100.00
2023-02-22T00:18:35.374Z,100.00
2023-02-22T00:21:03.098Z,100.00
2023-02-22T00:23:32.177Z,100.00
2023-02-22T00:26:01.489Z,100.00
2023-02-22T00:28:31.001Z,100.00
2023-02-22T00:31:00.137Z,100.00
2023-02-22T00:33:27.931Z,100.00
2023-02-22T00:35:55.579Z,100.00
2023-02-22T00:38:23.251Z,100.00
2023-02-22T00:40:51.225Z,100.00
2023-02-22T00:43:18.917Z,100.00
2023-02-22T00:45:49.550Z,100.00
2023-02-22T00:48:18.645Z,100.00
2023-02-22T00:50:48.871Z,100.00
2023-02-22T00:53:16.687Z,100.00
2023-02-22T00:55:44.291Z,100.00
2023-02-22T00:58:13.104Z,100.00
2023-02-22T01:00:42.802Z,100.00
2023-02-22T01:03:12.337Z,100.00
2023-02-22T01:05:39.931Z,100.00
2023-02-22T01:08:10.298Z,100.00
2023-02-22T01:10:39.490Z,100.00
2023-02-22T01:13:09.572Z,100.00
2023-02-22T01:15:39.724Z,100.00
2023-02-22T01:18:08.070Z,100.00
2023-02-22T01:20:36.535Z,100.00
2023-02-22T01:23:08.179Z,100.00
2023-02-22T01:25:36.396Z,100.00
2023-02-22T01:28:06.185Z,100.00
2023-02-22T01:30:36.367Z,100.00
2023-02-22T01:33:06.461Z,100.00
2023-02-22T01:35:43.319Z,100.00
2023-02-22T01:38:11.322Z,100.00
2023-02-22T01:40:42.550Z,100.00
2023-02-22T01:43:22.693Z,100.00
2023-02-22T01:46:05.688Z,100.00
2023-02-22T01:48:46.341Z,100.00
2023-02-22T01:51:24.198Z,100.00
2023-02-22T01:53:54.550Z,100.00
2023-02-22T01:56:25.763Z,100.00
2023-02-22T01:58:59.012Z,100.00
2023-02-22T02:01:27.204Z,100.00
2023-02-22T02:04:00.121Z,100.00
2023-02-22T02:06:31.682Z,100.00
2023-02-22T02:09:24.130Z,100.00
2023-02-22T02:11:51.872Z,100.00
2023-02-22T02:14:22.062Z,100.00
2023-02-22T02:16:52.347Z,100.00
2023-02-22T02:19:52.280Z,100.00
2023-02-22T02:22:25.838Z,100.00
2023-02-22T02:25:18.479Z,100.00
2023-02-22T02:28:19.882Z,100.00
2023-02-22T02:31:26.072Z,100.00
2023-02-22T02:34:22.239Z,100.00
2023-02-22T02:37:12.850Z,100.00
2023-02-22T02:40:06.674Z,100.00
2023-02-22T02:42:42.588Z,99.13
2023-02-22T02:45:16.448Z,98.96
2023-02-22T02:47:47.913Z,100.00
2023-02-22T02:50:30.000Z,99.70
2023-02-22T02:53:03.461Z,99.55
2023-02-22T02:55:33.150Z,99.42
2023-02-22T02:58:01.158Z,99.62
2023-02-22T03:00:39.648Z,99.88
2023-02-22T03:03:25.322Z,99.96
2023-02-22T03:06:18.163Z,100.00
2023-02-22T03:09:03.986Z,100.00
2023-02-22T03:11:48.771Z,100.00
2023-02-22T03:14:23.509Z,100.00
2023-02-22T03:17:18.912Z,100.00
2023-02-22T03:20:32.060Z,100.00
2023-02-22T03:23:29.761Z,100.00
2023-02-22T03:26:13.569Z,100.00
2023-02-22T03:28:46.741Z,100.00
2023-02-22T03:31:20.639Z,100.00
2023-02-22T03:33:55.914Z,100.00
2023-02-22T03:36:30.575Z,100.00
2023-02-22T03:39:00.876Z,100.00
2023-02-22T03:41:30.634Z,100.00
2023-02-22T03:44:08.646Z,100.00
2023-02-22T03:46:40.223Z,100.00
2023-02-22T03:49:35.496Z,100.00
2023-02-22T03:52:07.517Z,100.00
2023-02-22T03:54:36.166Z,100.00
2023-02-22T03:57:27.473Z,100.00
2023-02-22T04:00:08.185Z,100.00
2023-02-22T04:02:42.427Z,100.00
2023-02-22T04:05:15.663Z,100.00
2023-02-22T04:07:43.999Z,100.00
2023-02-22T04:10:16.464Z,100.00
2023-02-22T04:12:44.838Z,100.00
2023-02-22T04:15:15.877Z,100.00
2023-02-22T04:17:44.316Z,100.00
2023-02-22T04:20:15.638Z,100.00
2023-02-22T04:22:48.855Z,100.00
2023-02-22T04:25:16.805Z,100.00
2023-02-22T04:27:45.778Z,100.00
2023-02-22T04:30:14.116Z,100.00
2023-02-22T04:32:43.186Z,100.00
2023-02-22T04:35:13.227Z,100.00
2023-02-22T04:37:43.107Z,100.00
2023-02-22T04:40:11.917Z,100.00
2023-02-22T04:42:40.468Z,100.00
2023-02-22T04:45:09.838Z,100.00
2023-02-22T04:47:38.873Z,100.00
2023-02-22T04:50:09.015Z,100.00
2023-02-22T04:52:36.670Z,100.00
2023-02-22T04:55:05.268Z,100.00
2023-02-22T04:57:34.262Z,100.00
2023-02-22T05:00:01.900Z,100.00
2023-02-22T05:02:32.219Z,100.00
2023-02-22T05:04:59.878Z,100.00
2023-02-22T05:07:27.484Z,100.00
2023-02-22T05:09:55.094Z,100.00
2023-02-22T05:12:22.633Z,100.00
2023-02-22T05:14:50.199Z,100.00
2023-02-22T05:17:17.680Z,100.00
2023-02-22T05:19:45.144Z,100.00
2023-02-22T05:22:12.750Z,100.00
2023-02-22T05:24:40.277Z,100.00
2023-02-22T05:27:07.910Z,100.00
2023-02-22T05:29:35.507Z,100.00
2023-02-22T05:32:03.184Z,100.00
2023-02-22T05:34:31.283Z,100.00
2023-02-22T05:36:59.174Z,100.00
2023-02-22T05:39:26.778Z,100.00
2023-02-22T05:41:54.452Z,100.00
2023-02-22T05:44:22.032Z,100.00
2023-02-22T05:46:49.615Z,100.00
2023-02-22T05:49:17.251Z,100.00
2023-02-22T05:51:44.749Z,100.00
2023-02-22T05:54:12.248Z,100.00
2023-02-22T05:56:39.843Z,100.00
2023-02-22T05:59:07.406Z,100.00
2023-02-22T06:01:35.103Z,100.00
2023-02-22T06:04:02.817Z,100.00
2023-02-22T06:06:30.321Z,100.00
2023-02-22T06:08:57.893Z,100.00
2023-02-22T06:11:25.380Z,100.00
2023-02-22T06:13:53.883Z,100.00
2023-02-22T06:16:22.639Z,100.00
2023-02-22T06:18:50.637Z,100.00
2023-02-22T06:21:18.527Z,100.00
2023-02-22T06:23:46.252Z,100.00
2023-02-22T06:26:17.396Z,100.00
2023-02-22T06:28:48.494Z,100.00
2023-02-22T06:31:16.387Z,100.00
2023-02-22T06:33:44.136Z,100.00
2023-02-22T06:36:11.796Z,100.00
2023-02-22T06:38:39.398Z,100.00
2023-02-22T06:41:06.913Z,100.00
2023-02-22T06:43:34.415Z,100.00
2023-02-22T06:46:02.070Z,100.00
2023-02-22T06:48:29.738Z,100.00
2023-02-22T06:50:57.255Z,100.00
2023-02-22T06:53:24.994Z,100.00
2023-02-22T06:55:55.146Z,100.00
2023-02-22T06:58:22.807Z,100.00
2023-02-22T07:00:50.385Z,100.00
2023-02-22T07:03:18.043Z,100.00
2023-02-22T07:05:45.797Z,100.00
2023-02-22T07:08:13.894Z,100.00
2023-02-22T07:10:41.472Z,100.00
2023-02-22T07:13:09.719Z,100.00
2023-02-22T07:15:37.333Z,100.00
2023-02-22T07:18:05.060Z,100.00
2023-02-22T07:20:32.897Z,100.00
2023-02-22T07:23:01.574Z,100.00
2023-02-22T07:25:29.251Z,100.00
2023-02-22T07:27:56.983Z,100.00
2023-02-22T07:30:34.441Z,100.00
2023-02-22T07:33:05.528Z,100.00
2023-02-22T07:35:37.007Z,100.00
2023-02-22T07:38:08.677Z,100.00
2023-02-22T07:40:37.844Z,100.00
2023-02-22T07:43:14.904Z,100.00
2023-02-22T07:45:42.526Z,100.00
2023-02-22T07:48:12.913Z,100.00
2023-02-22T07:50:41.801Z,100.00
2023-02-22T07:53:15.712Z,87.73
2023-02-22T07:55:43.892Z,83.12
2023-02-22T07:58:15.466Z,72.88
2023-02-22T08:00:44.463Z,66.90
2023-02-22T08:03:14.007Z,68.19
2023-02-22T08:05:45.311Z,64.90
2023-02-22T08:08:14.935Z,60.94
2023-02-22T08:10:43.105Z,56.85
2023-02-22T08:13:11.171Z,55.74
2023-02-22T08:15:40.652Z,54.06
2023-02-22T08:18:11.318Z,51.37
2023-02-22T08:20:40.822Z,50.56
2023-02-22T08:23:09.927Z,50.82
2023-02-22T08:25:37.896Z,49.00
2023-02-22T08:28:07.980Z,47.64
2023-02-22T08:30:38.311Z,47.37
2023-02-22T08:33:07.879Z,50.97
2023-02-22T08:35:35.713Z,50.93
2023-02-22T08:38:06.156Z,49.60
2023-02-22T08:40:36.820Z,49.52
2023-02-22T08:43:05.250Z,49.29
2023-02-22T08:45:32.924Z,45.64
2023-02-22T08:48:00.470Z,46.30
2023-02-22T08:50:31.189Z,45.01
2023-02-22T08:53:01.179Z,42.85
2023-02-22T08:55:32.879Z,38.90
2023-02-22T08:58:03.314Z,37.27
2023-02-22T09:00:33.555Z,37.65
2023-02-22T09:03:02.509Z,37.13
2023-02-22T09:05:31.537Z,37.19
2023-02-22T09:08:00.207Z,37.13
2023-02-22T09:10:31.042Z,36.90
2023-02-22T09:13:01.460Z,38.74
2023-02-22T09:15:29.614Z,36.72
2023-02-22T09:17:57.495Z,38.36
2023-02-22T09:20:25.900Z,37.50
2023-02-22T09:22:55.056Z,37.91
2023-02-22T09:25:23.478Z,38.06
2023-02-22T09:27:52.942Z,38.24
2023-02-22T09:30:32.450Z,40.01
2023-02-22T09:33:13.115Z,38.85
2023-02-22T09:35:48.404Z,38.45
2023-02-22T09:38:25.157Z,39.94
2023-02-22T09:40:58.084Z,38.11
2023-02-22T09:44:11.247Z,39.67
2023-02-22T09:46:46.116Z,38.71
2023-02-22T09:49:30.030Z,38.44
2023-02-22T09:52:13.888Z,39.08
2023-02-22T09:54:46.000Z,39.59
2023-02-22T09:57:20.495Z,39.36
2023-02-22T10:00:13.389Z,39.76
2023-02-22T10:03:21.810Z,38.02
2023-02-22T10:05:59.305Z,41.35
2023-02-22T10:08:33.674Z,38.83
2023-02-22T10:11:13.390Z,37.79
2023-02-22T10:13:52.938Z,38.81
2023-02-22T10:16:31.744Z,39.92
2023-02-22T10:19:13.720Z,39.35
2023-02-22T10:22:11.503Z,41.66
2023-02-22T10:24:39.986Z,38.98
2023-02-22T10:27:20.989Z,40.24
2023-02-22T10:30:25.044Z,42.64
2023-02-22T10:33:03.743Z,41.26
2023-02-22T10:35:35.925Z,41.28
2023-02-22T10:38:15.196Z,41.28
2023-02-22T10:40:51.028Z,41.08
2023-02-22T10:43:18.658Z,42.61
2023-02-22T10:45:46.276Z,40.93
2023-02-22T10:48:18.906Z,40.69
2023-02-22T10:50:48.155Z,41.23
2023-02-22T10:53:16.148Z,42.59
2023-02-22T10:56:05.638Z,43.01
2023-02-22T10:58:50.593Z,42.09
2023-02-22T11:01:21.314Z,42.09
2023-02-22T11:03:59.099Z,42.98
2023-02-22T11:06:26.901Z,42.80
2023-02-22T11:09:15.295Z,43.69
2023-02-22T11:11:46.351Z,42.96
2023-02-22T11:14:27.028Z,44.64
2023-02-22T11:16:57.740Z,43.36
2023-02-22T11:19:31.052Z,42.44
2023-02-22T11:22:16.982Z,43.61
2023-02-22T11:25:07.764Z,45.09
2023-02-22T11:27:40.847Z,43.52
2023-02-22T11:30:23.636Z,41.08
2023-02-22T11:32:56.116Z,42.14
2023-02-22T11:35:29.589Z,44.10
2023-02-22T11:38:17.367Z,42.30
2023-02-22T11:40:45.879Z,42.22
2023-02-22T11:43:19.212Z,44.28
2023-02-22T11:46:06.358Z,43.34
2023-02-22T11:48:39.404Z,41.88
2023-02-22T11:51:14.546Z,43.16
2023-02-22T11:54:19.777Z,44.29
2023-02-22T11:56:51.716Z,42.93
2023-02-22T11:59:38.770Z,43.21
2023-02-22T12:02:09.767Z,42.77
2023-02-22T12:04:50.236Z,43.64
2023-02-22T12:07:53.433Z,43.75
2023-02-22T12:10:41.489Z,42.71
2023-02-22T12:13:30.339Z,42.78
2023-02-22T12:16:19.842Z,44.31
2023-02-22T12:19:15.602Z,43.21
2023-02-22T12:21:47.276Z,43.09
2023-02-22T12:24:23.866Z,43.10
2023-02-22T12:26:59.065Z,43.38
2023-02-22T12:29:37.916Z,43.36
2023-02-22T12:32:12.968Z,43.72
2023-02-22T12:34:43.550Z,42.39
2023-02-22T12:37:28.363Z,43.72
2023-02-22T12:40:09.921Z,43.21
2023-02-22T12:43:08.129Z,44.02
2023-02-22T12:46:03.257Z,42.97
2023-02-22T12:48:35.751Z,43.29
2023-02-22T12:51:22.207Z,45.01
2023-02-22T12:54:02.552Z,44.07
2023-02-22T12:56:48.486Z,44.20
2023-02-22T12:59:26.863Z,43.88
2023-02-22T13:02:01.104Z,43.26
2023-02-22T13:04:32.211Z,42.93
2023-02-22T13:07:18.969Z,44.56
2023-02-22T13:09:55.605Z,43.46
2023-02-22T13:12:52.407Z,45.13
2023-02-22T13:15:26.150Z,43.55
2023-02-22T13:18:10.868Z,44.47
2023-02-22T13:21:01.731Z,44.09
2023-02-22T13:23:51.226Z,45.10
2023-02-22T13:26:26.161Z,44.42
2023-02-22T13:29:09.088Z,45.17
2023-02-22T13:32:12.472Z,45.52
2023-02-22T13:35:01.529Z,45.04
2023-02-22T13:37:57.091Z,44.93
2023-02-22T13:40:43.209Z,45.56
2023-02-22T13:43:47.581Z,45.32
2023-02-22T13:46:46.088Z,44.89
2023-02-22T13:49:32.306Z,44.35
2023-02-22T13:52:14.351Z,45.63
2023-02-22T13:54:47.341Z,44.48
2023-02-22T13:57:24.130Z,44.73
2023-02-22T14:00:16.424Z,45.95
2023-02-22T14:03:15.004Z,46.41
2023-02-22T14:05:45.648Z,45.57
2023-02-22T14:08:19.421Z,46.82
2023-02-22T14:11:01.297Z,46.77
2023-02-22T14:13:33.709Z,45.25
2023-02-22T14:16:01.256Z,45.59
2023-02-22T14:18:42.455Z,45.94
2023-02-22T14:21:18.472Z,46.24
2023-02-22T14:24:06.583Z,45.73
2023-02-22T14:26:39.800Z,46.96
2023-02-22T14:29:10.610Z,46.31
2023-02-22T14:31:41.465Z,46.05
2023-02-22T14:34:12.188Z,46.55
2023-02-22T14:36:55.198Z,47.12
2023-02-22T14:39:38.729Z,47.07
2023-02-22T14:42:14.764Z,46.91
2023-02-22T14:45:03.440Z,47.66
2023-02-22T14:48:01.697Z,47.54
2023-02-22T14:50:46.171Z,48.56
2023-02-22T14:53:13.796Z,47.42
2023-02-22T14:55:52.157Z,48.58
2023-02-22T14:58:23.897Z,47.54
2023-02-22T15:00:57.460Z,47.92
2023-02-22T15:03:37.748Z,47.49
2023-02-22T15:06:20.330Z,47.55
2023-02-22T15:08:49.713Z,47.67
2023-02-22T15:11:36.037Z,49.21
2023-02-22T15:14:25.167Z,46.71
2023-02-22T15:16:57.140Z,47.34
2023-02-22T15:19:28.469Z,47.83
2023-02-22T15:21:58.756Z,47.60
2023-02-22T15:24:31.844Z,47.86
2023-02-22T15:27:13.163Z,48.40
2023-02-22T15:29:44.862Z,47.67
2023-02-22T15:32:19.794Z,48.35
2023-02-22T15:34:47.443Z,47.58
2023-02-22T15:37:25.793Z,48.70
2023-02-22T15:39:59.798Z,47.73
2023-02-22T15:42:29.796Z,48.35
2023-02-22T15:44:58.373Z,47.44
2023-02-22T15:47:29.719Z,48.12
2023-02-22T15:50:17.654Z,49.82
2023-02-22T15:53:23.535Z,48.88
2023-02-22T15:56:00.533Z,48.02
2023-02-22T15:58:30.349Z,47.82
2023-02-22T16:01:14.521Z,48.93
2023-02-22T16:03:47.714Z,47.83
2023-02-22T16:06:28.875Z,49.75
2023-02-22T16:08:59.284Z,48.93
2023-02-22T16:11:32.719Z,48.48
2023-02-22T16:14:05.209Z,48.58
2023-02-22T16:16:37.076Z,48.52
2023-02-22T16:19:42.623Z,48.84
2023-02-22T16:22:35.429Z,48.18
2023-02-22T16:25:16.986Z,48.46
2023-02-22T16:27:53.055Z,47.85
2023-02-22T16:30:37.202Z,48.46
2023-02-22T16:33:10.378Z,47.45
2023-02-22T16:35:38.037Z,47.07
2023-02-22T16:38:09.904Z,47.86
2023-02-22T16:40:44.942Z,46.81
2023-02-22T16:43:15.718Z,47.61
2023-02-22T16:45:43.596Z,47.59
2023-02-22T16:48:21.802Z,48.63
2023-02-22T16:50:51.465Z,46.73
2023-02-22T16:53:22.001Z,46.81
2023-02-22T16:55:52.202Z,47.67
2023-02-22T16:58:20.340Z,47.66
2023-02-22T17:00:48.026Z,47.97
2023-02-22T17:03:18.318Z,48.65
2023-02-22T17:05:45.991Z,48.17
2023-02-22T17:08:13.600Z,48.74
2023-02-22T17:10:41.267Z,49.67
2023-02-22T17:13:22.187Z,48.88
2023-02-22T17:15:52.159Z,48.68
2023-02-22T17:18:23.692Z,48.58
2023-02-22T17:20:52.961Z,48.35
2023-02-22T17:23:21.433Z,48.91
2023-02-22T17:25:54.971Z,48.89
2023-02-22T17:28:25.167Z,48.75
2023-02-22T17:30:54.646Z,49.53
2023-02-22T17:33:27.978Z,50.11
2023-02-22T17:35:58.989Z,49.64
2023-02-22T17:38:30.537Z,49.07
2023-02-22T17:41:00.020Z,48.95
2023-02-22T17:43:30.747Z,50.43
2023-02-22T17:45:58.375Z,50.70
2023-02-22T17:48:27.185Z,50.17
2023-02-22T17:50:55.161Z,49.85
2023-02-22T17:53:25.142Z,49.59
2023-02-22T17:55:53.192Z,49.30
2023-02-22T17:58:20.762Z,50.47
2023-02-22T18:00:50.946Z,50.19
2023-02-22T18:03:21.975Z,50.37
2023-02-22T18:05:51.031Z,50.02
2023-02-22T18:08:20.110Z,49.97
2023-02-22T18:10:52.499Z,50.18
2023-02-22T18:13:20.947Z,49.92
2023-02-22T18:15:49.057Z,49.61
2023-02-22T18:18:18.088Z,49.95
2023-02-22T18:20:47.826Z,49.91
2023-02-22T18:23:17.851Z,48.99
2023-02-22T18:26:03.850Z,49.45
2023-02-22T18:28:40.552Z,49.44
2023-02-22T18:31:16.426Z,49.90
2023-02-22T18:33:50.135Z,49.46
2023-02-22T18:36:23.521Z,49.55
2023-02-22T18:38:55.744Z,50.48
2023-02-22T18:41:28.693Z,50.02
2023-02-22T18:43:59.286Z,49.96
2023-02-22T18:46:28.068Z,49.99
2023-02-22T18:48:57.030Z,50.34
2023-02-22T18:51:25.853Z,51.40
2023-02-22T18:53:58.034Z,53.14
2023-02-22T18:56:30.223Z,52.90
2023-02-22T18:59:01.426Z,52.42
2023-02-22T19:01:30.415Z,53.04
2023-02-22T19:03:58.160Z,51.64
2023-02-22T19:06:25.735Z,51.26
2023-02-22T19:08:54.084Z,50.50
2023-02-22T19:14:23.948Z,51.34
2023-02-22T19:16:52.269Z,51.82
2023-02-22T19:19:29.068Z,52.74
2023-02-22T19:22:00.193Z,51.34
2023-02-22T19:24:27.762Z,49.98
2023-02-22T19:26:57.840Z,50.70
2023-02-22T19:29:25.562Z,50.09
2023-02-22T19:31:54.059Z,50.37
2023-02-22T19:34:24.152Z,49.31
2023-02-22T19:36:51.657Z,50.51
2023-02-22T19:41:48.798Z,50.54
2023-02-22T19:44:16.328Z,49.98
2023-02-22T19:46:44.277Z,50.95
2023-02-22T19:49:12.333Z,50.31
2023-02-22T19:51:40.175Z,49.07
2023-02-22T19:54:09.324Z,50.35
2023-02-22T19:56:36.873Z,50.22
2023-02-22T19:59:14.164Z,50.11
2023-02-22T20:01:44.682Z,50.43
2023-02-22T20:04:18.710Z,50.96
2023-02-22T20:06:47.503Z,52.59
2023-02-22T20:09:18.354Z,52.98
2023-02-22T20:11:47.884Z,52.26
2023-02-22T20:14:23.719Z,52.62
2023-02-22T20:16:56.336Z,51.41
2023-02-22T20:19:24.875Z,50.64
2023-02-22T20:21:53.365Z,50.01
2023-02-22T20:24:20.907Z,48.98
2023-02-22T20:26:50.208Z,49.21
2023-02-22T20:29:18.261Z,48.90
2023-02-22T20:31:49.926Z,48.72
2023-02-22T20:34:17.545Z,49.81
2023-02-22T20:36:45.512Z,49.70
2023-02-22T20:39:14.596Z,49.43
2023-02-22T20:41:43.880Z,49.51
2023-02-22T20:44:14.578Z,49.16
2023-02-22T20:46:42.355Z,48.98
2023-02-22T20:49:12.973Z,49.28
2023-02-22T20:51:42.162Z,48.75
2023-02-22T20:54:12.493Z,49.17
2023-02-22T20:56:43.302Z,49.38
2023-02-22T20:59:15.932Z,48.85
2023-02-22T21:01:43.594Z,49.01
2023-02-22T21:04:12.158Z,48.93
2023-02-22T21:06:40.663Z,49.55
2023-02-22T21:09:13.387Z,49.79
2023-02-22T21:11:41.142Z,49.51
2023-02-22T21:14:10.331Z,49.09
2023-02-22T21:16:38.073Z,49.23
2023-02-22T21:19:07.603Z,49.15
2023-02-22T21:21:36.601Z,48.82
2023-02-22T21:24:04.447Z,48.77
2023-02-22T21:26:34.391Z,48.53
2023-02-22T21:29:05.082Z,47.47
2023-02-22T21:31:34.556Z,47.82
2023-02-22T21:34:02.471Z,48.04
2023-02-22T21:36:30.131Z,48.04
2023-02-22T21:39:08.613Z,47.54
2023-02-22T21:41:39.733Z,48.63
2023-02-22T21:44:08.252Z,48.22
2023-02-22T21:46:35.967Z,48.57
2023-02-22T21:49:03.625Z,48.09
2023-02-22T21:51:32.900Z,48.18
2023-02-22T21:54:02.536Z,49.16
2023-02-22T21:56:34.660Z,48.76
2023-02-22T21:59:15.012Z,48.72
2023-02-22T22:01:50.264Z,49.29
2023-02-22T22:04:21.151Z,50.72
2023-02-22T22:06:51.697Z,50.41
2023-02-22T22:09:20.753Z,51.24
2023-02-22T22:11:53.824Z,52.11
2023-02-22T22:14:24.070Z,51.88
2023-02-22T22:16:55.071Z,53.97
2023-02-22T22:19:23.208Z,53.16
2023-02-22T22:21:53.785Z,52.70
2023-02-22T22:24:23.042Z,51.03
2023-02-22T22:26:55.034Z,51.20
2023-02-22T22:29:25.322Z,51.54
2023-02-22T22:31:53.392Z,50.52
2023-02-22T22:34:24.523Z,49.87
2023-02-22T22:36:52.056Z,50.32
2023-02-22T22:39:21.399Z,49.98
2023-02-22T22:41:49.191Z,50.47
2023-02-22T22:44:22.552Z,50.77
2023-02-22T22:46:55.069Z,49.00
2023-02-22T22:49:25.526Z,51.42
2023-02-22T22:51:53.864Z,51.68
2023-02-22T22:54:21.509Z,52.36
2023-02-22T22:56:49.086Z,51.90
2023-02-22T22:59:16.740Z,51.29
2023-02-22T23:01:45.093Z,53.78
2023-02-22T23:04:16.702Z,53.89
2023-02-22T23:06:52.794Z,52.52
2023-02-22T23:09:23.447Z,53.38
2023-02-22T23:12:09.360Z,54.00
2023-02-22T23:14:44.469Z,53.65
2023-02-22T23:17:27.118Z,54.10
2023-02-22T23:19:55.320Z,56.73
2023-02-22T23:22:25.269Z,57.97
2023-02-22T23:24:52.771Z,59.62
2023-02-22T23:27:20.368Z,62.72
2023-02-22T23:29:49.930Z,64.34
2023-02-22T23:32:17.557Z,61.92
2023-02-22T23:34:45.128Z,65.97
2023-02-22T23:37:14.403Z,65.73
2023-02-22T23:39:42.569Z,63.28
2023-02-22T23:42:10.057Z,65.55
2023-02-22T23:44:37.637Z,65.47
2023-02-22T23:47:05.227Z,66.69
2023-02-22T23:49:39.055Z,68.61
2023-02-22T23:52:06.929Z,65.82
2023-02-22T23:54:40.592Z,66.14
2023-02-22T23:57:09.149Z,64.18
2023-02-22T23:59:40.684Z,64.06
